PIA301 OPIS-OPKC
Flight info
| Callsign | PIA301 |
|---|---|
| Flight time | 1h 27m |
| Altitude | 40000 |
| Route | BELKO Z301 NH |
| Aircraft | B772/H-SDE2E3FGHIJ5LORVWXY/LB1D1 |
Departure
| Time | 2026-04-26 08:46 |
|---|---|
| Airport | Islamabad International Airport (OPIS) |
Arrival
| Time | 2026-04-26 10:14 |
|---|---|
| Airport | Jinnah International Airport (OPKC) |
| Time | Latitude | Longitude | Altitude | Speed | Heading |
|---|---|---|---|---|---|
| 2026-04-26 07:33 | 33.55405 | 72.82837 | 1774 ft | 0 kts | 144° |
| 2026-04-26 08:32 | 33.55408 | 72.82835 | 1777 ft | 3 kts | 144° |
| 2026-04-26 08:33 | 33.55429 | 72.82816 | 1773 ft | 4 kts | 144° |
| 2026-04-26 08:33 | 33.55452 | 72.82797 | 1774 ft | 4 kts | 144° |
| 2026-04-26 08:33 | 33.55469 | 72.82783 | 1774 ft | 4 kts | 162° |
| 2026-04-26 08:33 | 33.55483 | 72.82781 | 1774 ft | 4 kts | 216° |
| 2026-04-26 08:34 | 33.55500 | 72.82802 | 1774 ft | 3 kts | 235° |
| 2026-04-26 08:34 | 33.55515 | 72.82828 | 1774 ft | 4 kts | 235° |
| 2026-04-26 08:34 | 33.55528 | 72.82851 | 1774 ft | 0 kts | 235° |
| 2026-04-26 08:37 | 33.55523 | 72.82843 | 1773 ft | 3 kts | 235° |
| 2026-04-26 08:37 | 33.55507 | 72.82815 | 1773 ft | 6 kts | 235° |
| 2026-04-26 08:37 | 33.55478 | 72.82765 | 1786 ft | 9 kts | 235° |
| 2026-04-26 08:37 | 33.55439 | 72.82698 | 1778 ft | 10 kts | 235° |
| 2026-04-26 08:38 | 33.55389 | 72.82635 | 1776 ft | 11 kts | 208° |
| 2026-04-26 08:38 | 33.55310 | 72.82610 | 1776 ft | 12 kts | 190° |
| 2026-04-26 08:38 | 33.55226 | 72.82595 | 1775 ft | 10 kts | 179° |
| 2026-04-26 08:38 | 33.55187 | 72.82639 | 1776 ft | 8 kts | 104° |
| 2026-04-26 08:39 | 33.55175 | 72.82712 | 1773 ft | 9 kts | 100° |
| 2026-04-26 08:39 | 33.55164 | 72.82790 | 1775 ft | 10 kts | 100° |
| 2026-04-26 08:39 | 33.55152 | 72.82870 | 1776 ft | 10 kts | 100° |
| 2026-04-26 08:39 | 33.55140 | 72.82950 | 1776 ft | 10 kts | 99° |
| 2026-04-26 08:40 | 33.55128 | 72.83036 | 1774 ft | 11 kts | 101° |
| 2026-04-26 08:40 | 33.55112 | 72.83130 | 1773 ft | 12 kts | 101° |
| 2026-04-26 08:40 | 33.55096 | 72.83237 | 1776 ft | 13 kts | 100° |
| 2026-04-26 08:40 | 33.55079 | 72.83352 | 1774 ft | 15 kts | 100° |
| 2026-04-26 08:41 | 33.55060 | 72.83474 | 1775 ft | 16 kts | 100° |
| 2026-04-26 08:41 | 33.55039 | 72.83609 | 1773 ft | 17 kts | 101° |
| 2026-04-26 08:41 | 33.55015 | 72.83762 | 1775 ft | 21 kts | 100° |
| 2026-04-26 08:41 | 33.54987 | 72.83944 | 1775 ft | 23 kts | 101° |
| 2026-04-26 08:42 | 33.54957 | 72.84131 | 1775 ft | 23 kts | 101° |
| 2026-04-26 08:42 | 33.54929 | 72.84319 | 1775 ft | 23 kts | 100° |
| 2026-04-26 08:42 | 33.54905 | 72.84482 | 1774 ft | 15 kts | 100° |
| 2026-04-26 08:42 | 33.54854 | 72.84548 | 1777 ft | 10 kts | 174° |
| 2026-04-26 08:43 | 33.54812 | 72.84541 | 1773 ft | 0 kts | 191° |
| 2026-04-26 08:43 | 33.54799 | 72.84538 | 1773 ft | 9 kts | 191° |
| 2026-04-26 08:43 | 33.54674 | 72.84510 | 1768 ft | 20 kts | 190° |
| 2026-04-26 08:43 | 33.54557 | 72.84482 | 1768 ft | 14 kts | 195° |
| 2026-04-26 08:44 | 33.54524 | 72.84402 | 1768 ft | 9 kts | 287° |
| 2026-04-26 08:44 | 33.54572 | 72.84372 | 1769 ft | 9 kts | 10° |
| 2026-04-26 08:44 | 33.54631 | 72.84388 | 1770 ft | 9 kts | 13° |
| 2026-04-26 08:44 | 33.54689 | 72.84402 | 1769 ft | 7 kts | 359° |
| 2026-04-26 08:45 | 33.54721 | 72.84363 | 1770 ft | 6 kts | 289° |
| 2026-04-26 08:45 | 33.54724 | 72.84344 | 1770 ft | 0 kts | 280° |
| 2026-04-26 08:45 | 33.54731 | 72.84301 | 1769 ft | 20 kts | 280° |
| 2026-04-26 08:46 | 33.54802 | 72.83837 | 1771 ft | 96 kts | 281° |
| 2026-04-26 08:46 | 33.54968 | 72.82757 | 1770 ft | 165 kts | 280° |
| 2026-04-26 08:46 | 33.55186 | 72.81277 | 2258 ft | 187 kts | 283° |
| 2026-04-26 08:46 | 33.55434 | 72.79723 | 3086 ft | 193 kts | 284° |
| 2026-04-26 08:47 | 33.55685 | 72.78155 | 4122 ft | 195 kts | 282° |
| 2026-04-26 08:47 | 33.55958 | 72.76444 | 4490 ft | 223 kts | 282° |
| 2026-04-26 08:47 | 33.56254 | 72.74532 | 4952 ft | 237 kts | 280° |
| 2026-04-26 08:47 | 33.56103 | 72.72567 | 5706 ft | 242 kts | 253° |
| 2026-04-26 08:48 | 33.55301 | 72.70761 | 6366 ft | 251 kts | 233° |
| 2026-04-26 08:48 | 33.54005 | 72.69238 | 6630 ft | 275 kts | 213° |
| 2026-04-26 08:48 | 33.52154 | 72.68559 | 7200 ft | 283 kts | 188° |
| 2026-04-26 08:48 | 33.50175 | 72.68309 | 7859 ft | 288 kts | 187° |
| 2026-04-26 08:49 | 33.48159 | 72.68081 | 8582 ft | 292 kts | 187° |
| 2026-04-26 08:49 | 33.46147 | 72.67854 | 9266 ft | 296 kts | 188° |
| 2026-04-26 08:49 | 33.44082 | 72.67615 | 9955 ft | 300 kts | 188° |
| 2026-04-26 08:49 | 33.41946 | 72.67360 | 10265 ft | 319 kts | 188° |
| 2026-04-26 08:50 | 33.39655 | 72.67078 | 10442 ft | 342 kts | 188° |
| 2026-04-26 08:50 | 33.37240 | 72.66777 | 10984 ft | 353 kts | 188° |
| 2026-04-26 08:50 | 33.34797 | 72.66473 | 11714 ft | 361 kts | 188° |
| 2026-04-26 08:50 | 33.32280 | 72.66158 | 12623 ft | 365 kts | 188° |
| 2026-04-26 08:51 | 33.27159 | 72.65515 | 14395 ft | 375 kts | 187° |
| 2026-04-26 08:51 | 33.24551 | 72.65187 | 15278 ft | 378 kts | 188° |
| 2026-04-26 08:51 | 33.21925 | 72.64855 | 16174 ft | 382 kts | 188° |
| 2026-04-26 08:52 | 33.19272 | 72.64520 | 17006 ft | 387 kts | 188° |
| 2026-04-26 08:52 | 33.16580 | 72.64180 | 17843 ft | 391 kts | 188° |
| 2026-04-26 08:52 | 33.13851 | 72.63836 | 18570 ft | 395 kts | 188° |
| 2026-04-26 08:52 | 33.11100 | 72.63490 | 19259 ft | 399 kts | 188° |
| 2026-04-26 08:53 | 33.08330 | 72.63135 | 19944 ft | 400 kts | 190° |
| 2026-04-26 08:53 | 33.05605 | 72.62396 | 20532 ft | 403 kts | 202° |
| 2026-04-26 08:53 | 33.03065 | 72.61075 | 21175 ft | 403 kts | 211° |
| 2026-04-26 08:53 | 33.00720 | 72.59258 | 21849 ft | 402 kts | 219° |
| 2026-04-26 08:54 | 32.98465 | 72.57249 | 22483 ft | 406 kts | 219° |
| 2026-04-26 08:54 | 32.96197 | 72.55199 | 23124 ft | 410 kts | 220° |
| 2026-04-26 08:54 | 32.93895 | 72.53124 | 23704 ft | 414 kts | 219° |
| 2026-04-26 08:54 | 32.91588 | 72.51057 | 24249 ft | 417 kts | 219° |
| 2026-04-26 08:55 | 32.89277 | 72.49001 | 24790 ft | 421 kts | 220° |
| 2026-04-26 08:55 | 32.86917 | 72.46913 | 25329 ft | 424 kts | 220° |
| 2026-04-26 08:55 | 32.84532 | 72.44812 | 25864 ft | 428 kts | 220° |
| 2026-04-26 08:55 | 32.82123 | 72.42692 | 26385 ft | 432 kts | 220° |
| 2026-04-26 08:56 | 32.79692 | 72.40556 | 26906 ft | 436 kts | 220° |
| 2026-04-26 08:56 | 32.78067 | 72.39128 | 27243 ft | 438 kts | 220° |
| 2026-04-26 08:56 | 32.74789 | 72.36252 | 27936 ft | 443 kts | 220° |
| 2026-04-26 08:56 | 32.72292 | 72.34061 | 28444 ft | 447 kts | 221° |
| 2026-04-26 08:57 | 32.69778 | 72.31858 | 28972 ft | 451 kts | 221° |
| 2026-04-26 08:57 | 32.67237 | 72.29632 | 29471 ft | 455 kts | 221° |
| 2026-04-26 08:57 | 32.64677 | 72.27392 | 29962 ft | 458 kts | 221° |
| 2026-04-26 08:57 | 32.62102 | 72.25139 | 30406 ft | 461 kts | 221° |
| 2026-04-26 08:58 | 32.59554 | 72.22913 | 30883 ft | 462 kts | 221° |
| 2026-04-26 08:58 | 32.56962 | 72.20649 | 31362 ft | 463 kts | 221° |
| 2026-04-26 08:58 | 32.54360 | 72.18379 | 31794 ft | 465 kts | 220° |
| 2026-04-26 08:58 | 32.51739 | 72.16091 | 32164 ft | 468 kts | 220° |
| 2026-04-26 08:59 | 32.49108 | 72.13798 | 32521 ft | 470 kts | 220° |
| 2026-04-26 08:59 | 32.46394 | 72.11586 | 32874 ft | 474 kts | 216° |
| 2026-04-26 08:59 | 32.43533 | 72.09697 | 33216 ft | 479 kts | 211° |
| 2026-04-26 08:59 | 32.40551 | 72.07947 | 33646 ft | 478 kts | 210° |
| 2026-04-26 09:00 | 32.37573 | 72.06220 | 34110 ft | 475 kts | 210° |
| 2026-04-26 09:00 | 32.34596 | 72.04493 | 34540 ft | 473 kts | 211° |
| 2026-04-26 09:00 | 32.31646 | 72.02771 | 34941 ft | 472 kts | 211° |
| 2026-04-26 09:00 | 32.28707 | 72.01045 | 35329 ft | 470 kts | 211° |
| 2026-04-26 09:01 | 32.25820 | 71.99343 | 35717 ft | 469 kts | 211° |
| 2026-04-26 09:01 | 32.22903 | 71.97620 | 36141 ft | 467 kts | 211° |
| 2026-04-26 09:01 | 32.19996 | 71.95903 | 36556 ft | 465 kts | 211° |
| 2026-04-26 09:01 | 32.17097 | 71.94190 | 36953 ft | 463 kts | 211° |
| 2026-04-26 09:02 | 32.14220 | 71.92492 | 37337 ft | 462 kts | 211° |
| 2026-04-26 09:02 | 32.11348 | 71.90800 | 37717 ft | 460 kts | 211° |
| 2026-04-26 09:02 | 32.08520 | 71.89134 | 38098 ft | 459 kts | 211° |
| 2026-04-26 09:02 | 32.05674 | 71.87460 | 38456 ft | 457 kts | 211° |
| 2026-04-26 09:03 | 32.02823 | 71.85784 | 38716 ft | 457 kts | 212° |
| 2026-04-26 09:03 | 31.99971 | 71.84107 | 38923 ft | 457 kts | 212° |
| 2026-04-26 09:03 | 31.97120 | 71.82432 | 39145 ft | 458 kts | 212° |
| 2026-04-26 09:03 | 31.94265 | 71.80757 | 39380 ft | 457 kts | 212° |
| 2026-04-26 09:04 | 31.91420 | 71.79089 | 39607 ft | 457 kts | 212° |
| 2026-04-26 09:04 | 31.86658 | 71.76297 | 39730 ft | 462 kts | 212° |
| 2026-04-26 09:05 | 31.79952 | 71.72375 | 39759 ft | 461 kts | 212° |
| 2026-04-26 09:05 | 31.75199 | 71.69603 | 39756 ft | 455 kts | 212° |
| 2026-04-26 09:06 | 31.69522 | 71.66289 | 39766 ft | 454 kts | 212° |
| 2026-04-26 09:06 | 31.63867 | 71.62992 | 39767 ft | 453 kts | 212° |
| 2026-04-26 09:07 | 31.58236 | 71.59716 | 39767 ft | 454 kts | 211° |
| 2026-04-26 09:07 | 31.52555 | 71.56420 | 39764 ft | 455 kts | 211° |
| 2026-04-26 09:08 | 31.46899 | 71.53145 | 39764 ft | 456 kts | 211° |
| 2026-04-26 09:08 | 31.41186 | 71.49840 | 39763 ft | 456 kts | 211° |
| 2026-04-26 09:09 | 31.35478 | 71.46541 | 39756 ft | 457 kts | 211° |
| 2026-04-26 09:09 | 31.29799 | 71.43263 | 39755 ft | 458 kts | 211° |
| 2026-04-26 09:10 | 31.24069 | 71.39961 | 39753 ft | 458 kts | 211° |
| 2026-04-26 09:10 | 31.18371 | 71.36681 | 39748 ft | 459 kts | 211° |
| 2026-04-26 09:11 | 31.12641 | 71.33386 | 39757 ft | 459 kts | 211° |
| 2026-04-26 09:11 | 31.06897 | 71.30088 | 39750 ft | 459 kts | 211° |
| 2026-04-26 09:12 | 31.01184 | 71.26815 | 39750 ft | 460 kts | 211° |
| 2026-04-26 09:12 | 30.95428 | 71.23524 | 39744 ft | 460 kts | 211° |
| 2026-04-26 09:13 | 30.89669 | 71.20234 | 39740 ft | 460 kts | 211° |
| 2026-04-26 09:13 | 30.83941 | 71.16965 | 39743 ft | 460 kts | 211° |
| 2026-04-26 09:14 | 30.78180 | 71.13682 | 39739 ft | 460 kts | 211° |
| 2026-04-26 09:14 | 30.72426 | 71.10407 | 39736 ft | 460 kts | 211° |
| 2026-04-26 09:15 | 30.66706 | 71.07156 | 39737 ft | 460 kts | 211° |
| 2026-04-26 09:15 | 30.60962 | 71.03895 | 39736 ft | 459 kts | 211° |
| 2026-04-26 09:16 | 30.55203 | 71.00631 | 39742 ft | 459 kts | 211° |
| 2026-04-26 09:16 | 30.49493 | 70.97398 | 39728 ft | 459 kts | 211° |
| 2026-04-26 09:17 | 30.43751 | 70.94151 | 39732 ft | 459 kts | 211° |
| 2026-04-26 09:17 | 30.38010 | 70.90909 | 39731 ft | 459 kts | 211° |
| 2026-04-26 09:18 | 30.32257 | 70.87664 | 39729 ft | 458 kts | 211° |
| 2026-04-26 09:18 | 30.26555 | 70.84451 | 39732 ft | 458 kts | 211° |
| 2026-04-26 09:19 | 30.20816 | 70.81207 | 39732 ft | 457 kts | 211° |
| 2026-04-26 09:19 | 30.15194 | 70.77748 | 39732 ft | 456 kts | 213° |
| 2026-04-26 09:20 | 30.09620 | 70.74214 | 39733 ft | 457 kts | 213° |
| 2026-04-26 09:20 | 30.04064 | 70.70723 | 39731 ft | 457 kts | 213° |
| 2026-04-26 09:21 | 29.98458 | 70.67234 | 39729 ft | 457 kts | 213° |
| 2026-04-26 09:21 | 29.92873 | 70.63773 | 39727 ft | 457 kts | 213° |
| 2026-04-26 09:22 | 29.87261 | 70.60300 | 39725 ft | 457 kts | 213° |
| 2026-04-26 09:22 | 29.81646 | 70.56828 | 39724 ft | 457 kts | 213° |
| 2026-04-26 09:23 | 29.76061 | 70.53379 | 39724 ft | 457 kts | 213° |
| 2026-04-26 09:23 | 29.70449 | 70.49918 | 39724 ft | 457 kts | 212° |
| 2026-04-26 09:24 | 29.64839 | 70.46462 | 39720 ft | 457 kts | 212° |
| 2026-04-26 09:24 | 29.59273 | 70.43038 | 39721 ft | 456 kts | 212° |
| 2026-04-26 09:25 | 29.53665 | 70.39592 | 39722 ft | 456 kts | 212° |
| 2026-04-26 09:25 | 29.48089 | 70.36170 | 39715 ft | 456 kts | 212° |
| 2026-04-26 09:26 | 29.42466 | 70.32724 | 39715 ft | 456 kts | 212° |
| 2026-04-26 09:26 | 29.36881 | 70.29305 | 39714 ft | 457 kts | 212° |
| 2026-04-26 09:27 | 29.31255 | 70.25865 | 39713 ft | 457 kts | 212° |
| 2026-04-26 09:27 | 29.25669 | 70.22454 | 39710 ft | 458 kts | 212° |
| 2026-04-26 09:28 | 29.20037 | 70.19020 | 39719 ft | 458 kts | 212° |
| 2026-04-26 09:28 | 29.14430 | 70.15605 | 39712 ft | 458 kts | 212° |
| 2026-04-26 09:29 | 29.08801 | 70.12180 | 39714 ft | 458 kts | 212° |
| 2026-04-26 09:29 | 29.03150 | 70.08747 | 39711 ft | 458 kts | 212° |
| 2026-04-26 09:30 | 28.97546 | 70.05347 | 39707 ft | 459 kts | 212° |
| 2026-04-26 09:30 | 28.91896 | 70.01922 | 39711 ft | 459 kts | 212° |
| 2026-04-26 09:31 | 28.86232 | 69.98494 | 39702 ft | 460 kts | 212° |
| 2026-04-26 09:31 | 28.80605 | 69.95092 | 39707 ft | 461 kts | 212° |
| 2026-04-26 09:32 | 28.74923 | 69.91661 | 39703 ft | 462 kts | 212° |
| 2026-04-26 09:32 | 28.69230 | 69.88227 | 39697 ft | 462 kts | 211° |
| 2026-04-26 09:33 | 28.63567 | 69.84816 | 39695 ft | 462 kts | 211° |
| 2026-04-26 09:33 | 28.57864 | 69.81384 | 39692 ft | 463 kts | 211° |
| 2026-04-26 09:34 | 28.52161 | 69.77948 | 39693 ft | 463 kts | 212° |
| 2026-04-26 09:34 | 28.46499 | 69.74457 | 39692 ft | 463 kts | 212° |
| 2026-04-26 09:35 | 28.40865 | 69.70963 | 39686 ft | 463 kts | 212° |
| 2026-04-26 09:35 | 28.35199 | 69.67460 | 39687 ft | 463 kts | 212° |
| 2026-04-26 09:36 | 28.29523 | 69.63962 | 39683 ft | 464 kts | 212° |
| 2026-04-26 09:36 | 28.23876 | 69.60490 | 39682 ft | 464 kts | 212° |
| 2026-04-26 09:37 | 28.18181 | 69.56991 | 39685 ft | 464 kts | 212° |
| 2026-04-26 09:37 | 28.12535 | 69.53527 | 39683 ft | 464 kts | 212° |
| 2026-04-26 09:38 | 28.06839 | 69.50035 | 39683 ft | 465 kts | 212° |
| 2026-04-26 09:38 | 28.01149 | 69.46552 | 39678 ft | 465 kts | 212° |
| 2026-04-26 09:39 | 27.95447 | 69.43067 | 39677 ft | 465 kts | 212° |
| 2026-04-26 09:39 | 27.89785 | 69.39609 | 39675 ft | 465 kts | 212° |
| 2026-04-26 09:40 | 27.84083 | 69.36132 | 39678 ft | 465 kts | 212° |
| 2026-04-26 09:40 | 27.78380 | 69.32657 | 39675 ft | 465 kts | 212° |
| 2026-04-26 09:41 | 27.72660 | 69.29176 | 39672 ft | 465 kts | 212° |
| 2026-04-26 09:41 | 27.66994 | 69.25733 | 39675 ft | 465 kts | 212° |
| 2026-04-26 09:42 | 27.61294 | 69.22273 | 39670 ft | 465 kts | 212° |
| 2026-04-26 09:42 | 27.55590 | 69.18814 | 39668 ft | 465 kts | 212° |
| 2026-04-26 09:43 | 27.49881 | 69.15357 | 39672 ft | 464 kts | 212° |
| 2026-04-26 09:43 | 27.44192 | 69.11914 | 39670 ft | 464 kts | 212° |
| 2026-04-26 09:44 | 27.38542 | 69.08500 | 39668 ft | 463 kts | 212° |
| 2026-04-26 09:44 | 27.32850 | 69.05063 | 39668 ft | 463 kts | 212° |
| 2026-04-26 09:45 | 27.27164 | 69.01631 | 39671 ft | 463 kts | 212° |
| 2026-04-26 09:45 | 27.21522 | 68.98228 | 39674 ft | 463 kts | 212° |
| 2026-04-26 09:46 | 27.15828 | 68.94798 | 39670 ft | 463 kts | 212° |
| 2026-04-26 09:46 | 27.10183 | 68.91402 | 39671 ft | 463 kts | 212° |
| 2026-04-26 09:47 | 27.04495 | 68.87983 | 39673 ft | 463 kts | 212° |
| 2026-04-26 09:47 | 26.98817 | 68.84575 | 39676 ft | 463 kts | 211° |
| 2026-04-26 09:48 | 26.93122 | 68.81161 | 39676 ft | 463 kts | 211° |
| 2026-04-26 09:48 | 26.87471 | 68.77776 | 39679 ft | 464 kts | 211° |
| 2026-04-26 09:49 | 26.81758 | 68.74359 | 39674 ft | 464 kts | 211° |
| 2026-04-26 09:49 | 26.76053 | 68.70950 | 39678 ft | 464 kts | 211° |
| 2026-04-26 09:50 | 26.70377 | 68.67561 | 39681 ft | 465 kts | 211° |
| 2026-04-26 09:50 | 26.64666 | 68.64156 | 39677 ft | 465 kts | 211° |
| 2026-04-26 09:51 | 26.58983 | 68.60762 | 39681 ft | 465 kts | 211° |
| 2026-04-26 09:51 | 26.53268 | 68.57339 | 39682 ft | 465 kts | 211° |
| 2026-04-26 09:52 | 26.47558 | 68.53922 | 39685 ft | 465 kts | 211° |
| 2026-04-26 09:52 | 26.41903 | 68.50545 | 39286 ft | 454 kts | 211° |
| 2026-04-26 09:52 | 26.40053 | 68.49441 | 38802 ft | 455 kts | 211° |
| 2026-04-26 09:53 | 26.37248 | 68.47765 | 37871 ft | 460 kts | 211° |
| 2026-04-26 09:53 | 26.33478 | 68.45513 | 36400 ft | 468 kts | 211° |
| 2026-04-26 09:53 | 26.30585 | 68.43788 | 35340 ft | 473 kts | 210° |
| 2026-04-26 09:53 | 26.28616 | 68.42615 | 34620 ft | 476 kts | 210° |
| 2026-04-26 09:54 | 26.25712 | 68.40887 | 33703 ft | 479 kts | 210° |
| 2026-04-26 09:54 | 26.22788 | 68.39149 | 32975 ft | 474 kts | 210° |
| 2026-04-26 09:54 | 26.19939 | 68.37359 | 32414 ft | 466 kts | 213° |
| 2026-04-26 09:54 | 26.17234 | 68.35391 | 31854 ft | 459 kts | 216° |
| 2026-04-26 09:55 | 26.14642 | 68.33365 | 31254 ft | 454 kts | 217° |
| 2026-04-26 09:55 | 26.11257 | 68.30663 | 30431 ft | 449 kts | 217° |
| 2026-04-26 09:55 | 26.09542 | 68.29300 | 30019 ft | 447 kts | 217° |
| 2026-04-26 09:55 | 26.07034 | 68.27329 | 29376 ft | 443 kts | 216° |
| 2026-04-26 09:56 | 26.04523 | 68.25380 | 28721 ft | 439 kts | 216° |
| 2026-04-26 09:56 | 26.02014 | 68.23450 | 28082 ft | 435 kts | 216° |
| 2026-04-26 09:56 | 25.99530 | 68.21551 | 27464 ft | 431 kts | 216° |
| 2026-04-26 09:56 | 25.97090 | 68.19691 | 26861 ft | 427 kts | 216° |
| 2026-04-26 09:57 | 25.94645 | 68.17829 | 26247 ft | 424 kts | 216° |
| 2026-04-26 09:57 | 25.92217 | 68.15981 | 25638 ft | 421 kts | 216° |
| 2026-04-26 09:57 | 25.89809 | 68.14149 | 25072 ft | 418 kts | 216° |
| 2026-04-26 09:57 | 25.87408 | 68.12322 | 24896 ft | 418 kts | 216° |
| 2026-04-26 09:58 | 25.85004 | 68.10493 | 24743 ft | 418 kts | 216° |
| 2026-04-26 09:58 | 25.82647 | 68.08702 | 24448 ft | 413 kts | 216° |
| 2026-04-26 09:58 | 25.80273 | 68.06899 | 23954 ft | 410 kts | 216° |
| 2026-04-26 09:58 | 25.77924 | 68.05115 | 23433 ft | 407 kts | 216° |
| 2026-04-26 09:59 | 25.75588 | 68.03342 | 22803 ft | 405 kts | 216° |
| 2026-04-26 09:59 | 25.73268 | 68.01581 | 22269 ft | 402 kts | 216° |
| 2026-04-26 09:59 | 25.70983 | 67.99842 | 21790 ft | 397 kts | 217° |
| 2026-04-26 09:59 | 25.68754 | 67.98046 | 21175 ft | 396 kts | 218° |
| 2026-04-26 10:00 | 25.66557 | 67.96201 | 20571 ft | 395 kts | 218° |
| 2026-04-26 10:00 | 25.64410 | 67.94379 | 20100 ft | 391 kts | 218° |
| 2026-04-26 10:00 | 25.62253 | 67.92553 | 19601 ft | 389 kts | 218° |
| 2026-04-26 10:00 | 25.60100 | 67.90739 | 19090 ft | 387 kts | 218° |
| 2026-04-26 10:01 | 25.57963 | 67.88948 | 18610 ft | 385 kts | 217° |
| 2026-04-26 10:01 | 25.55822 | 67.87158 | 18114 ft | 384 kts | 217° |
| 2026-04-26 10:01 | 25.53685 | 67.85378 | 17575 ft | 383 kts | 217° |
| 2026-04-26 10:01 | 25.51593 | 67.83638 | 17091 ft | 379 kts | 217° |
| 2026-04-26 10:02 | 25.49489 | 67.81888 | 16594 ft | 377 kts | 217° |
| 2026-04-26 10:02 | 25.47393 | 67.80147 | 16149 ft | 373 kts | 217° |
| 2026-04-26 10:02 | 25.45321 | 67.78427 | 15713 ft | 369 kts | 217° |
| 2026-04-26 10:02 | 25.43288 | 67.76739 | 15214 ft | 368 kts | 217° |
| 2026-04-26 10:03 | 25.41235 | 67.75036 | 14757 ft | 366 kts | 217° |
| 2026-04-26 10:03 | 25.39211 | 67.73357 | 14407 ft | 360 kts | 217° |
| 2026-04-26 10:03 | 25.37266 | 67.71744 | 14345 ft | 346 kts | 217° |
| 2026-04-26 10:03 | 25.35374 | 67.70176 | 14262 ft | 332 kts | 217° |
| 2026-04-26 10:04 | 25.33548 | 67.68664 | 14100 ft | 324 kts | 216° |
| 2026-04-26 10:04 | 25.31740 | 67.67167 | 13739 ft | 325 kts | 216° |
| 2026-04-26 10:04 | 25.29936 | 67.65674 | 13337 ft | 323 kts | 216° |
| 2026-04-26 10:04 | 25.28162 | 67.64207 | 12911 ft | 321 kts | 216° |
| 2026-04-26 10:05 | 25.26368 | 67.62723 | 12490 ft | 320 kts | 217° |
| 2026-04-26 10:05 | 25.24584 | 67.61248 | 12068 ft | 318 kts | 217° |
| 2026-04-26 10:05 | 25.22831 | 67.59798 | 11676 ft | 317 kts | 217° |
| 2026-04-26 10:05 | 25.21068 | 67.58342 | 11276 ft | 315 kts | 217° |
| 2026-04-26 10:06 | 25.19312 | 67.56892 | 10880 ft | 314 kts | 217° |
| 2026-04-26 10:06 | 25.17564 | 67.55449 | 10489 ft | 313 kts | 217° |
| 2026-04-26 10:06 | 25.15820 | 67.54009 | 10092 ft | 312 kts | 217° |
| 2026-04-26 10:06 | 25.14079 | 67.52573 | 9707 ft | 310 kts | 217° |
| 2026-04-26 10:07 | 25.12376 | 67.51169 | 9306 ft | 309 kts | 217° |
| 2026-04-26 10:07 | 25.10671 | 67.49764 | 9059 ft | 302 kts | 217° |
| 2026-04-26 10:07 | 25.09013 | 67.48397 | 8901 ft | 293 kts | 217° |
| 2026-04-26 10:07 | 25.07380 | 67.47052 | 8560 ft | 291 kts | 217° |
| 2026-04-26 10:08 | 25.05756 | 67.45713 | 8174 ft | 291 kts | 217° |
| 2026-04-26 10:08 | 25.04157 | 67.44397 | 7778 ft | 281 kts | 218° |
| 2026-04-26 10:08 | 25.02641 | 67.43149 | 7388 ft | 270 kts | 218° |
| 2026-04-26 10:08 | 25.01162 | 67.41932 | 6984 ft | 261 kts | 218° |
| 2026-04-26 10:09 | 24.99722 | 67.40749 | 6572 ft | 254 kts | 219° |
| 2026-04-26 10:09 | 24.98321 | 67.39597 | 6106 ft | 249 kts | 219° |
| 2026-04-26 10:09 | 24.96940 | 67.38461 | 5593 ft | 245 kts | 219° |
| 2026-04-26 10:09 | 24.95813 | 67.37122 | 5087 ft | 236 kts | 245° |
| 2026-04-26 10:10 | 24.95364 | 67.35425 | 4603 ft | 228 kts | 259° |
| 2026-04-26 10:10 | 24.94993 | 67.33729 | 4041 ft | 227 kts | 256° |
| 2026-04-26 10:10 | 24.94569 | 67.32057 | 3505 ft | 225 kts | 256° |
| 2026-04-26 10:10 | 24.94153 | 67.30428 | 3100 ft | 215 kts | 256° |
| 2026-04-26 10:11 | 24.93765 | 67.28898 | 2741 ft | 199 kts | 256° |
| 2026-04-26 10:11 | 24.93410 | 67.27492 | 2350 ft | 187 kts | 256° |
| 2026-04-26 10:11 | 24.93073 | 67.26162 | 2034 ft | 172 kts | 257° |
| 2026-04-26 10:11 | 24.92772 | 67.24972 | 2009 ft | 156 kts | 257° |
| 2026-04-26 10:12 | 24.92488 | 67.23846 | 1999 ft | 149 kts | 256° |
| 2026-04-26 10:12 | 24.92199 | 67.22704 | 1873 ft | 155 kts | 257° |
| 2026-04-26 10:12 | 24.91921 | 67.21609 | 1542 ft | 140 kts | 258° |
| 2026-04-26 10:12 | 24.91671 | 67.20619 | 1159 ft | 131 kts | 258° |
| 2026-04-26 10:13 | 24.91436 | 67.19682 | 817 ft | 122 kts | 254° |
| 2026-04-26 10:13 | 24.91201 | 67.18777 | 472 ft | 123 kts | 251° |
| 2026-04-26 10:13 | 24.90974 | 67.17873 | 250 ft | 123 kts | 253° |
| 2026-04-26 10:13 | 24.90743 | 67.16974 | 110 ft | 114 kts | 254° |
| 2026-04-26 10:14 | 24.90562 | 67.16245 | 108 ft | 81 kts | 255° |
| 2026-04-26 10:14 | 24.90446 | 67.15779 | 109 ft | 46 kts | 255° |
| 2026-04-26 10:14 | 24.90370 | 67.15477 | 110 ft | 37 kts | 254° |
| 2026-04-26 10:14 | 24.90306 | 67.15231 | 108 ft | 31 kts | 255° |
| 2026-04-26 10:15 | 24.90240 | 67.15034 | 108 ft | 25 kts | 235° |
| 2026-04-26 10:15 | 24.90136 | 67.14908 | 107 ft | 14 kts | 225° |
| 2026-04-26 10:15 | 24.90059 | 67.14868 | 108 ft | 12 kts | 167° |
| 2026-04-26 10:15 | 24.90027 | 67.14920 | 108 ft | 7 kts | 83° |
| 2026-04-26 10:16 | 24.90041 | 67.14974 | 107 ft | 7 kts | 74° |
| 2026-04-26 10:16 | 24.90054 | 67.15027 | 107 ft | 7 kts | 74° |
| 2026-04-26 10:16 | 24.90068 | 67.15080 | 107 ft | 7 kts | 74° |
| 2026-04-26 10:16 | 24.90081 | 67.15134 | 106 ft | 7 kts | 74° |
| 2026-04-26 10:17 | 24.90095 | 67.15187 | 109 ft | 7 kts | 74° |
| 2026-04-26 10:17 | 24.90109 | 67.15241 | 107 ft | 7 kts | 74° |
| 2026-04-26 10:17 | 24.90123 | 67.15294 | 106 ft | 7 kts | 74° |
| 2026-04-26 10:17 | 24.90137 | 67.15350 | 107 ft | 10 kts | 74° |
| 2026-04-26 10:18 | 24.90167 | 67.15465 | 108 ft | 21 kts | 74° |
| 2026-04-26 10:18 | 24.90209 | 67.15633 | 108 ft | 23 kts | 74° |
| 2026-04-26 10:18 | 24.90251 | 67.15800 | 108 ft | 23 kts | 75° |
| 2026-04-26 10:18 | 24.90293 | 67.15968 | 109 ft | 23 kts | 75° |
| 2026-04-26 10:19 | 24.90335 | 67.16137 | 106 ft | 23 kts | 75° |
| 2026-04-26 10:19 | 24.90372 | 67.16285 | 108 ft | 15 kts | 74° |
| 2026-04-26 10:19 | 24.90355 | 67.16353 | 110 ft | 9 kts | 149° |
| 2026-04-26 10:19 | 24.90300 | 67.16384 | 106 ft | 9 kts | 127° |
| 2026-04-26 10:20 | 24.90301 | 67.16451 | 109 ft | 9 kts | 74° |
| 2026-04-26 10:20 | 24.90312 | 67.16495 | 107 ft | 9 kts | 74° |
| 2026-04-26 10:20 | 24.90315 | 67.16553 | 106 ft | 4 kts | 128° |
| 2026-04-26 10:20 | 24.90286 | 67.16564 | 106 ft | 4 kts | 164° |
| 2026-04-26 10:21 | 24.90258 | 67.16574 | 107 ft | 4 kts | 164° |
| 2026-04-26 10:21 | 24.90242 | 67.16579 | 107 ft | 1 kts | 164° |